Accueil
METAR-TAF:

METAR-TAF

Aéroports :

Montpellier, France

Aéroport de Montpellier-Méditerranée

latitude: 43-35N, longitude: 003-58E, altitude: 5 m

Observation

Le bulletin a été fait il y a 33 minutes, à 04:30 UTC
Vent 6 kt de nord
Température 20°C
Humidité 78%
Pression 1016 hPa
Visibilité 10 km ou plus
pas de nuages en-dessous de 1500 mètres et pas de cumulonimbus.

METAR: LFMT 180430Z AUTO 01006KT CAVOK 20/16 Q1016 NOSIG

Heure: 07:03 (05:03 UTC)

Prévision

Le bulletin a été fait il y a 3 heures et 3 minutes, à 02:00 UTC
Prévision valable du 18 à 03 UTC au 19 à 03 UTC
Vent 5 kt de nord-est
Visibilité 10 km ou plus
pas de nuages en-dessous de 1500 mètres et pas de cumulonimbus.
Evoluant progressivement
du 18 à 09 UTC au 18 à 13 UTC
Vent 10 kt de sud
Evoluant progressivement
du 18 à 17 UTC au 18 à 20 UTC
Vent 5 kt de direction variable

TAF: LFMT 180200Z 1803/1903 04005KT CAVOK BECMG 1809/1813 17010KT BECMG 1817/1820 VRB05KT

Observations et prévisions météorologiques de plus de 4000 aéroports (messages METAR et TAF).

Les stations disponibles sont représentées par des disques jaunes et rouges sur la carte.

Passer la souris dessus pour voir le nom de la station.

Cliquer dessus pour voir les observations et prévisions météorologiques.

Pour changer de carte: cliquez sur les boutons verts avec une croix noire pour zoomer, sur le bouton vert avec un tiret pour effectuer un zoom arrière, ou sur les flèches vertes pour les cartes adjacentes.


METAR-TAF: